Sesena, Spain
Current Conditions -  °F | °C
As of 1:00 PM on Friday 24 Oct 2014 (Local Time) from LEGT Reporting Station
Clear Clear  
Wind Chill: 72°   Ceiling: Unl
Heat Index: 72°   Visibility: 6mi
Dew Point: 45°   Wind: 0mph
Humidity: 38%   Direction: NA
Pressure: 30.15"   Gusts: NA
Location:  40.1°N, 3.7°W
Report Text: LEGT 241100Z 00000KT CAVOK 22/07 Q1021
Loading
Personal Weather Stations






























Interactive Weather Map
Tropical Storm Tracking
New forecast layout! Learn more

10-Day Weather Forecast

Advertisements
Track Severe Weather on mobile